SHT22E EGLL-EGJB
Flight info
| Callsign | SHT22E |
|---|---|
| Flight time | 0h 34m |
| Altitude | 18000 |
| Route | GASGU N866 SAM N63 LELNA |
| Aircraft | A319/M-SDE3FGHIRWY/LB1 |
Departure
| Time | 2026-04-22 15:15 |
|---|---|
| Airport | London Heathrow Airport (EGLL) |
Arrival
| Time | 2026-04-22 15:50 |
|---|---|
| Airport | Guernsey Airport (EGJB) |
| Time | Latitude | Longitude | Altitude | Speed | Heading |
|---|---|---|---|---|---|
| 2026-04-22 14:47 | 51.46928 | -0.48718 | 89 ft | 0 kts | 360° |
| 2026-04-22 15:04 | 51.46927 | -0.48718 | 87 ft | 0 kts | 360° |
| 2026-04-22 15:08 | 51.46924 | -0.48718 | 87 ft | 3 kts | 360° |
| 2026-04-22 15:08 | 51.46902 | -0.48717 | 87 ft | 4 kts | 5° |
| 2026-04-22 15:08 | 51.46880 | -0.48731 | 88 ft | 4 kts | 64° |
| 2026-04-22 15:08 | 51.46876 | -0.48762 | 87 ft | 0 kts | 89° |
| 2026-04-22 15:10 | 51.46876 | -0.48758 | 87 ft | 1 kts | 90° |
| 2026-04-22 15:10 | 51.46876 | -0.48733 | 89 ft | 3 kts | 90° |
| 2026-04-22 15:11 | 51.46876 | -0.48681 | 89 ft | 6 kts | 89° |
| 2026-04-22 15:11 | 51.46877 | -0.48600 | 87 ft | 9 kts | 89° |
| 2026-04-22 15:11 | 51.46874 | -0.48501 | 89 ft | 8 kts | 107° |
| 2026-04-22 15:11 | 51.46821 | -0.48471 | 87 ft | 8 kts | 179° |
| 2026-04-22 15:12 | 51.46765 | -0.48471 | 88 ft | 9 kts | 179° |
| 2026-04-22 15:12 | 51.46702 | -0.48470 | 87 ft | 8 kts | 180° |
| 2026-04-22 15:12 | 51.46641 | -0.48471 | 87 ft | 6 kts | 179° |
| 2026-04-22 15:12 | 51.46605 | -0.48470 | 88 ft | 2 kts | 179° |
| 2026-04-22 15:13 | 51.46596 | -0.48470 | 88 ft | 0 kts | 179° |
| 2026-04-22 15:13 | 51.46593 | -0.48470 | 88 ft | 2 kts | 179° |
| 2026-04-22 15:13 | 51.46571 | -0.48469 | 88 ft | 5 kts | 179° |
| 2026-04-22 15:13 | 51.46528 | -0.48468 | 89 ft | 7 kts | 179° |
| 2026-04-22 15:14 | 51.46479 | -0.48462 | 89 ft | 3 kts | 158° |
| 2026-04-22 15:14 | 51.46477 | -0.48415 | 91 ft | 6 kts | 85° |
| 2026-04-22 15:14 | 51.46478 | -0.48386 | 91 ft | 0 kts | 89° |
| 2026-04-22 15:15 | 51.46479 | -0.48312 | 89 ft | 28 kts | 89° |
| 2026-04-22 15:15 | 51.46480 | -0.47623 | 86 ft | 95 kts | 89° |
| 2026-04-22 15:15 | 51.46486 | -0.46248 | 210 ft | 141 kts | 90° |
| 2026-04-22 15:15 | 51.46490 | -0.44695 | 1008 ft | 139 kts | 90° |
| 2026-04-22 15:16 | 51.46506 | -0.43104 | 1768 ft | 149 kts | 88° |
| 2026-04-22 15:16 | 51.46372 | -0.41346 | 2341 ft | 173 kts | 109° |
| 2026-04-22 15:16 | 51.45677 | -0.39635 | 2986 ft | 194 kts | 122° |
| 2026-04-22 15:16 | 51.44836 | -0.37728 | 3594 ft | 223 kts | 121° |
| 2026-04-22 15:17 | 51.43906 | -0.35619 | 4614 ft | 237 kts | 124° |
| 2026-04-22 15:17 | 51.42672 | -0.33789 | 5813 ft | 249 kts | 145° |
| 2026-04-22 15:17 | 51.41236 | -0.32904 | 6893 ft | 259 kts | 165° |
| 2026-04-22 15:17 | 51.39467 | -0.32932 | 8006 ft | 272 kts | 188° |
| 2026-04-22 15:18 | 51.37723 | -0.34251 | 9157 ft | 287 kts | 213° |
| 2026-04-22 15:18 | 51.36218 | -0.36402 | 10313 ft | 292 kts | 218° |
| 2026-04-22 15:18 | 51.34688 | -0.38706 | 10950 ft | 315 kts | 220° |
| 2026-04-22 15:18 | 51.33066 | -0.41207 | 11502 ft | 331 kts | 216° |
| 2026-04-22 15:19 | 51.31019 | -0.42818 | 12318 ft | 329 kts | 188° |
| 2026-04-22 15:19 | 51.28789 | -0.43186 | 13253 ft | 331 kts | 182° |
| 2026-04-22 15:19 | 51.26497 | -0.44242 | 14176 ft | 344 kts | 203° |
| 2026-04-22 15:19 | 51.24567 | -0.46595 | 14979 ft | 357 kts | 226° |
| 2026-04-22 15:20 | 51.23642 | -0.48792 | 15491 ft | 365 kts | 242° |
| 2026-04-22 15:20 | 51.22902 | -0.54112 | 16614 ft | 373 kts | 264° |
| 2026-04-22 15:20 | 51.22688 | -0.58253 | 17508 ft | 376 kts | 265° |
| 2026-04-22 15:20 | 51.22480 | -0.62422 | 18088 ft | 378 kts | 265° |
| 2026-04-22 15:21 | 51.22271 | -0.66597 | 18267 ft | 377 kts | 265° |
| 2026-04-22 15:21 | 51.22056 | -0.70774 | 18305 ft | 379 kts | 265° |
| 2026-04-22 15:21 | 51.21833 | -0.74966 | 18301 ft | 379 kts | 265° |
| 2026-04-22 15:21 | 51.21607 | -0.79147 | 18297 ft | 379 kts | 265° |
| 2026-04-22 15:22 | 51.21377 | -0.83335 | 18295 ft | 379 kts | 265° |
| 2026-04-22 15:22 | 51.21145 | -0.87516 | 18299 ft | 378 kts | 265° |
| 2026-04-22 15:22 | 51.20755 | -0.91605 | 18293 ft | 379 kts | 256° |
| 2026-04-22 15:22 | 51.19838 | -0.95587 | 18304 ft | 379 kts | 243° |
| 2026-04-22 15:23 | 51.18441 | -0.99142 | 18304 ft | 378 kts | 232° |
| 2026-04-22 15:23 | 51.16671 | -1.02164 | 18301 ft | 378 kts | 223° |
| 2026-04-22 15:23 | 51.14774 | -1.05074 | 18309 ft | 379 kts | 224° |
| 2026-04-22 15:23 | 51.12874 | -1.07983 | 18302 ft | 379 kts | 224° |
| 2026-04-22 15:24 | 51.10971 | -1.10899 | 18311 ft | 379 kts | 224° |
| 2026-04-22 15:24 | 51.09072 | -1.13813 | 18303 ft | 380 kts | 224° |
| 2026-04-22 15:24 | 51.07173 | -1.16725 | 18281 ft | 379 kts | 224° |
| 2026-04-22 15:24 | 51.05270 | -1.19638 | 18292 ft | 379 kts | 224° |
| 2026-04-22 15:25 | 51.03373 | -1.22540 | 18290 ft | 379 kts | 224° |
| 2026-04-22 15:25 | 51.01469 | -1.25444 | 18292 ft | 379 kts | 224° |
| 2026-04-22 15:25 | 50.99568 | -1.28339 | 18292 ft | 379 kts | 224° |
| 2026-04-22 15:25 | 50.97671 | -1.31229 | 18288 ft | 378 kts | 224° |
| 2026-04-22 15:26 | 50.95700 | -1.33992 | 18293 ft | 378 kts | 217° |
| 2026-04-22 15:26 | 50.93463 | -1.36169 | 18289 ft | 378 kts | 207° |
| 2026-04-22 15:26 | 50.91112 | -1.38044 | 18289 ft | 378 kts | 207° |
| 2026-04-22 15:26 | 50.88768 | -1.39913 | 18290 ft | 378 kts | 206° |
| 2026-04-22 15:27 | 50.86419 | -1.41782 | 18290 ft | 378 kts | 207° |
| 2026-04-22 15:27 | 50.84073 | -1.43650 | 18288 ft | 377 kts | 207° |
| 2026-04-22 15:27 | 50.81727 | -1.45516 | 18286 ft | 377 kts | 207° |
| 2026-04-22 15:27 | 50.79377 | -1.47381 | 18279 ft | 377 kts | 207° |
| 2026-04-22 15:28 | 50.77030 | -1.49242 | 18285 ft | 378 kts | 207° |
| 2026-04-22 15:28 | 50.74685 | -1.51101 | 18285 ft | 377 kts | 207° |
| 2026-04-22 15:28 | 50.72339 | -1.52960 | 18285 ft | 377 kts | 207° |
| 2026-04-22 15:28 | 50.69996 | -1.54819 | 18286 ft | 377 kts | 207° |
| 2026-04-22 15:29 | 50.67650 | -1.56678 | 18278 ft | 377 kts | 207° |
| 2026-04-22 15:29 | 50.65309 | -1.58532 | 18284 ft | 377 kts | 207° |
| 2026-04-22 15:29 | 50.62968 | -1.60382 | 18284 ft | 376 kts | 207° |
| 2026-04-22 15:30 | 50.59082 | -1.63448 | 18283 ft | 376 kts | 207° |
| 2026-04-22 15:30 | 50.55950 | -1.65912 | 18282 ft | 376 kts | 207° |
| 2026-04-22 15:30 | 50.54401 | -1.67129 | 18280 ft | 376 kts | 206° |
| 2026-04-22 15:30 | 50.52063 | -1.68963 | 18281 ft | 376 kts | 206° |
| 2026-04-22 15:31 | 50.49726 | -1.70792 | 18279 ft | 375 kts | 206° |
| 2026-04-22 15:31 | 50.46632 | -1.73215 | 18278 ft | 375 kts | 206° |
| 2026-04-22 15:31 | 50.45055 | -1.74451 | 18279 ft | 375 kts | 206° |
| 2026-04-22 15:31 | 50.41964 | -1.76867 | 18277 ft | 375 kts | 206° |
| 2026-04-22 15:32 | 50.40388 | -1.78098 | 18279 ft | 375 kts | 206° |
| 2026-04-22 15:32 | 50.38055 | -1.79920 | 18279 ft | 374 kts | 206° |
| 2026-04-22 15:32 | 50.35727 | -1.81735 | 18281 ft | 374 kts | 206° |
| 2026-04-22 15:32 | 50.33398 | -1.83544 | 18280 ft | 374 kts | 206° |
| 2026-04-22 15:33 | 50.31068 | -1.85352 | 18279 ft | 373 kts | 206° |
| 2026-04-22 15:33 | 50.28773 | -1.87136 | 18272 ft | 373 kts | 206° |
| 2026-04-22 15:33 | 50.26449 | -1.88942 | 18277 ft | 373 kts | 206° |
| 2026-04-22 15:33 | 50.24125 | -1.90741 | 18275 ft | 372 kts | 206° |
| 2026-04-22 15:34 | 50.21803 | -1.92531 | 18274 ft | 372 kts | 206° |
| 2026-04-22 15:34 | 50.19486 | -1.94318 | 18269 ft | 371 kts | 206° |
| 2026-04-22 15:34 | 50.17170 | -1.96106 | 18267 ft | 371 kts | 206° |
| 2026-04-22 15:34 | 50.14856 | -1.97891 | 18269 ft | 371 kts | 206° |
| 2026-04-22 15:35 | 50.12550 | -1.99669 | 18263 ft | 370 kts | 206° |
| 2026-04-22 15:35 | 50.10239 | -2.01445 | 18266 ft | 370 kts | 206° |
| 2026-04-22 15:35 | 50.07934 | -2.03219 | 18260 ft | 369 kts | 206° |
| 2026-04-22 15:35 | 50.05631 | -2.04991 | 18261 ft | 369 kts | 206° |
| 2026-04-22 15:36 | 50.03330 | -2.06758 | 18262 ft | 369 kts | 206° |
| 2026-04-22 15:36 | 50.01029 | -2.08520 | 18255 ft | 368 kts | 206° |
| 2026-04-22 15:36 | 49.98806 | -2.10491 | 18252 ft | 368 kts | 215° |
| 2026-04-22 15:36 | 49.96865 | -2.13081 | 18248 ft | 369 kts | 226° |
| 2026-04-22 15:37 | 49.95165 | -2.16067 | 18247 ft | 369 kts | 228° |
| 2026-04-22 15:37 | 49.93471 | -2.19053 | 18242 ft | 368 kts | 228° |
| 2026-04-22 15:37 | 49.91772 | -2.22025 | 18246 ft | 368 kts | 227° |
| 2026-04-22 15:37 | 49.90072 | -2.24983 | 18246 ft | 367 kts | 227° |
| 2026-04-22 15:38 | 49.88372 | -2.27935 | 18248 ft | 367 kts | 227° |
| 2026-04-22 15:38 | 49.84982 | -2.33809 | 18072 ft | 360 kts | 227° |
| 2026-04-22 15:38 | 49.83336 | -2.36667 | 17663 ft | 352 kts | 227° |
| 2026-04-22 15:39 | 49.81725 | -2.39465 | 17012 ft | 346 kts | 227° |
| 2026-04-22 15:39 | 49.80130 | -2.42231 | 16292 ft | 342 kts | 227° |
| 2026-04-22 15:39 | 49.78554 | -2.44965 | 15599 ft | 339 kts | 227° |
| 2026-04-22 15:39 | 49.76990 | -2.47670 | 14920 ft | 335 kts | 227° |
| 2026-04-22 15:40 | 49.75443 | -2.50344 | 14253 ft | 332 kts | 227° |
| 2026-04-22 15:40 | 49.73911 | -2.52985 | 13556 ft | 328 kts | 227° |
| 2026-04-22 15:40 | 49.72395 | -2.55594 | 12831 ft | 325 kts | 227° |
| 2026-04-22 15:40 | 49.70888 | -2.58186 | 12106 ft | 323 kts | 226° |
| 2026-04-22 15:41 | 49.69381 | -2.60669 | 11819 ft | 307 kts | 224° |
| 2026-04-22 15:41 | 49.67887 | -2.62934 | 11470 ft | 296 kts | 221° |
| 2026-04-22 15:41 | 49.66416 | -2.65067 | 11004 ft | 293 kts | 220° |
| 2026-04-22 15:41 | 49.64929 | -2.67192 | 10499 ft | 291 kts | 220° |
| 2026-04-22 15:42 | 49.63449 | -2.69307 | 9994 ft | 289 kts | 220° |
| 2026-04-22 15:42 | 49.61962 | -2.71447 | 9429 ft | 288 kts | 220° |
| 2026-04-22 15:42 | 49.60524 | -2.73527 | 8889 ft | 287 kts | 220° |
| 2026-04-22 15:42 | 49.59078 | -2.75629 | 8360 ft | 285 kts | 219° |
| 2026-04-22 15:43 | 49.57640 | -2.77721 | 7848 ft | 283 kts | 219° |
| 2026-04-22 15:43 | 49.56214 | -2.79797 | 7446 ft | 278 kts | 219° |
| 2026-04-22 15:43 | 49.54847 | -2.81794 | 7324 ft | 263 kts | 219° |
| 2026-04-22 15:43 | 49.53555 | -2.83688 | 7205 ft | 250 kts | 218° |
| 2026-04-22 15:44 | 49.52335 | -2.85498 | 7078 ft | 237 kts | 218° |
| 2026-04-22 15:44 | 49.51164 | -2.87177 | 6952 ft | 221 kts | 211° |
| 2026-04-22 15:44 | 49.49789 | -2.87852 | 6561 ft | 204 kts | 172° |
| 2026-04-22 15:44 | 49.48409 | -2.87456 | 6112 ft | 201 kts | 162° |
| 2026-04-22 15:45 | 49.47053 | -2.86963 | 5715 ft | 200 kts | 165° |
| 2026-04-22 15:45 | 49.45672 | -2.86738 | 5336 ft | 199 kts | 172° |
| 2026-04-22 15:45 | 49.44304 | -2.86570 | 4967 ft | 194 kts | 163° |
| 2026-04-22 15:45 | 49.43223 | -2.85470 | 4592 ft | 188 kts | 126° |
| 2026-04-22 15:46 | 49.42871 | -2.83576 | 4271 ft | 187 kts | 93° |
| 2026-04-22 15:46 | 49.43005 | -2.81609 | 3779 ft | 183 kts | 90° |
| 2026-04-22 15:46 | 49.43063 | -2.79676 | 3267 ft | 179 kts | 92° |
| 2026-04-22 15:46 | 49.43096 | -2.77782 | 2760 ft | 175 kts | 91° |
| 2026-04-22 15:47 | 49.43128 | -2.75931 | 2364 ft | 171 kts | 91° |
| 2026-04-22 15:47 | 49.43164 | -2.74165 | 2099 ft | 158 kts | 90° |
| 2026-04-22 15:47 | 49.43200 | -2.72576 | 1881 ft | 140 kts | 89° |
| 2026-04-22 15:47 | 49.43233 | -2.71157 | 1687 ft | 126 kts | 89° |
| 2026-04-22 15:48 | 49.43262 | -2.69880 | 1509 ft | 114 kts | 88° |
| 2026-04-22 15:48 | 49.43290 | -2.68698 | 1358 ft | 108 kts | 88° |
| 2026-04-22 15:48 | 49.43316 | -2.67554 | 1200 ft | 106 kts | 87° |
| 2026-04-22 15:48 | 49.43345 | -2.66421 | 1059 ft | 108 kts | 85° |
| 2026-04-22 15:49 | 49.43373 | -2.65278 | 889 ft | 108 kts | 84° |
| 2026-04-22 15:49 | 49.43401 | -2.64135 | 724 ft | 106 kts | 84° |
| 2026-04-22 15:49 | 49.43424 | -2.63004 | 586 ft | 106 kts | 85° |
| 2026-04-22 15:49 | 49.43455 | -2.61875 | 426 ft | 105 kts | 86° |
| 2026-04-22 15:50 | 49.43480 | -2.60761 | 333 ft | 98 kts | 83° |
| 2026-04-22 15:50 | 49.43505 | -2.59979 | 343 ft | 46 kts | 87° |
| 2026-04-22 15:50 | 49.43516 | -2.59575 | 346 ft | 36 kts | 88° |
| 2026-04-22 15:50 | 49.43522 | -2.59316 | 349 ft | 17 kts | 88° |
| 2026-04-22 15:51 | 49.43495 | -2.59204 | 347 ft | 13 kts | 155° |
| 2026-04-22 15:51 | 49.43422 | -2.59195 | 352 ft | 8 kts | 177° |
| 2026-04-22 15:51 | 49.43375 | -2.59246 | 345 ft | 8 kts | 253° |
| 2026-04-22 15:51 | 49.43370 | -2.59334 | 345 ft | 10 kts | 267° |
| 2026-04-22 15:52 | 49.43367 | -2.59442 | 351 ft | 12 kts | 267° |
| 2026-04-22 15:52 | 49.43364 | -2.59556 | 345 ft | 8 kts | 269° |
| 2026-04-22 15:52 | 49.43362 | -2.59653 | 348 ft | 7 kts | 268° |
| 2026-04-22 15:52 | 49.43352 | -2.59690 | 348 ft | 4 kts | 208° |
| 2026-04-22 15:53 | 49.43311 | -2.59690 | 345 ft | 6 kts | 179° |
| 2026-04-22 15:53 | 49.43274 | -2.59689 | 345 ft | 4 kts | 178° |
| 2026-04-22 15:53 | 49.43266 | -2.59688 | 345 ft | 1 kts | 177° |
| 2026-04-22 15:53 | 49.43260 | -2.59687 | 345 ft | 0 kts | 177° |